Time;durP1;ratioP1;P1;durP2;ratioP2;P2;SDS_P1;SDS_P2;PMS_P1;PMS_P2;Temp;Humidity;BMP_temperature;BMP_pressure;BME280_temperature;BME280_humidity;BME280_pressure;Samples;Min_cycle;Max_cycle;Signal;HPM_P1;HPM_P2
2021/07/07 00:00:59;;;;;;;15.87;7.00;;;14.60;99.90;;;;;;5108198;28;20202;-78
2021/07/07 00:03:26;;;;;;;16.10;6.20;;;14.50;99.90;;;;;;5099953;28;20565;-78
2021/07/07 00:05:53;;;;;;;15.57;6.70;;;14.40;99.90;;;;;;5091836;28;20233;-78
2021/07/07 00:08:20;;;;;;;15.87;7.03;;;14.30;99.90;;;;;;5093184;28;20685;-78
2021/07/07 00:10:47;;;;;;;14.80;6.63;;;14.20;99.90;;;;;;5103020;28;20571;-78
2021/07/07 00:13:14;;;;;;;14.13;6.73;;;14.10;99.90;;;;;;5097734;28;20262;-77
2021/07/07 00:15:41;;;;;;;13.13;6.67;;;14.00;99.90;;;;;;5111426;28;20229;-78
2021/07/07 00:18:11;;;;;;;16.90;7.10;;;13.90;99.90;;;;;;5102190;28;20267;-78
2021/07/07 00:20:40;;;;;;;13.47;7.17;;;13.90;99.90;;;;;;5097881;28;20212;-78
2021/07/07 00:23:08;;;;;;;15.13;7.60;;;13.90;99.90;;;;;;5091762;28;20247;-78
2021/07/07 00:25:35;;;;;;;12.50;6.87;;;13.90;99.90;;;;;;5091839;28;20617;-78
2021/07/07 00:28:02;;;;;;;15.80;7.67;;;14.00;99.90;;;;;;5091891;28;20233;-78
2021/07/07 00:30:29;;;;;;;11.53;7.00;;;14.10;99.90;;;;;;5105968;28;20268;-78
2021/07/07 00:32:56;;;;;;;10.23;6.37;;;14.00;99.90;;;;;;5114235;28;20202;-78
2021/07/07 00:35:25;;;;;;;15.60;7.13;;;14.10;99.90;;;;;;5116516;28;20229;-78
2021/07/07 00:37:53;;;;;;;14.30;6.53;;;14.00;99.90;;;;;;5105391;28;20261;-78
2021/07/07 00:40:20;;;;;;;15.00;6.57;;;14.00;99.90;;;;;;5099692;28;20650;-78
2021/07/07 00:42:47;;;;;;;12.67;6.60;;;14.00;99.90;;;;;;5110965;28;20222;-78
2021/07/07 00:45:15;;;;;;;15.70;6.90;;;14.10;99.90;;;;;;5095629;28;20225;-77
2021/07/07 00:47:43;;;;;;;12.23;6.87;;;14.10;99.90;;;;;;5095306;28;20237;-78
2021/07/07 00:50:10;;;;;;;13.50;7.40;;;14.10;99.90;;;;;;5095559;28;20226;-78
2021/07/07 00:52:39;;;;;;;16.57;7.20;;;14.10;99.90;;;;;;5095586;28;20237;-78
2021/07/07 00:55:07;;;;;;;13.97;7.53;;;14.10;99.90;;;;;;5094865;28;20218;-78
2021/07/07 00:57:35;;;;;;;13.47;6.80;;;14.20;99.90;;;;;;5095004;28;20291;-78
2021/07/07 01:00:06;;;;;;;16.30;7.53;;;14.20;99.90;;;;;;5094190;28;20209;-78
2021/07/07 01:02:36;;;;;;;15.10;8.07;;;14.20;99.90;;;;;;5099776;28;20201;-76
2021/07/07 01:05:04;;;;;;;12.57;8.20;;;14.20;99.90;;;;;;5113611;28;20198;-78
2021/07/07 01:07:30;;;;;;;14.80;8.67;;;14.20;99.90;;;;;;5095405;28;20230;-78
2021/07/07 01:09:59;;;;;;;15.47;9.07;;;14.20;99.90;;;;;;5095379;28;20281;-78
2021/07/07 01:12:27;;;;;;;13.77;8.50;;;14.20;99.90;;;;;;5103081;28;20201;-78
2021/07/07 01:14:54;;;;;;;18.03;8.60;;;14.20;99.90;;;;;;5114975;28;20221;-78
2021/07/07 01:17:23;;;;;;;18.37;8.33;;;14.20;99.90;;;;;;5103664;28;20244;-77
2021/07/07 01:19:50;;;;;;;10.57;7.53;;;14.20;99.90;;;;;;5115606;28;20289;-78
2021/07/07 01:22:19;;;;;;;14.47;7.23;;;14.10;99.90;;;;;;5114727;28;20695;-78
2021/07/07 01:24:45;;;;;;;14.67;6.97;;;14.10;99.90;;;;;;5107470;28;20388;-78
2021/07/07 01:27:12;;;;;;;17.30;7.63;;;14.10;99.90;;;;;;5094942;28;20282;-78
2021/07/07 01:29:39;;;;;;;15.07;6.80;;;14.10;99.90;;;;;;5114658;28;20237;-78
2021/07/07 01:32:07;;;;;;;12.57;6.03;;;14.10;99.90;;;;;;5106028;28;20280;-78
2021/07/07 01:34:33;;;;;;;14.80;6.37;;;14.10;99.90;;;;;;5101762;28;20305;-77
2021/07/07 01:37:00;;;;;;;10.63;6.30;;;14.10;99.90;;;;;;5094981;28;20230;-78
2021/07/07 01:39:29;;;;;;;9.17;5.83;;;14.10;99.90;;;;;;5112610;28;20255;-78
2021/07/07 01:41:56;;;;;;;11.90;6.70;;;14.00;99.90;;;;;;5112507;28;20236;-78
2021/07/07 01:44:22;;;;;;;14.30;5.90;;;14.00;99.90;;;;;;5103421;28;20229;-78
2021/07/07 01:46:49;;;;;;;12.70;6.10;;;14.00;99.90;;;;;;5094653;28;20233;-78
2021/07/07 01:49:16;;;;;;;9.80;6.43;;;14.00;99.90;;;;;;5115284;28;20634;-78
2021/07/07 01:51:43;;;;;;;8.50;5.80;;;14.00;99.90;;;;;;5112279;28;20297;-78
2021/07/07 01:54:11;;;;;;;9.63;5.70;;;14.00;99.90;;;;;;5102486;28;20302;-78
2021/07/07 01:56:39;;;;;;;8.90;5.70;;;14.00;99.90;;;;;;5094469;28;20285;-78
2021/07/07 01:59:06;;;;;;;12.53;7.07;;;14.00;99.90;;;;;;5094741;28;20238;-78
2021/07/07 02:01:33;;;;;;;11.40;6.73;;;14.00;99.90;;;;;;5096668;28;20241;-78
2021/07/07 02:04:00;;;;;;;12.97;7.27;;;13.90;99.90;;;;;;5094216;28;20281;-78
2021/07/07 02:06:29;;;;;;;14.20;7.03;;;13.90;99.90;;;;;;5093808;28;20734;-78
2021/07/07 02:08:56;;;;;;;11.13;7.13;;;13.80;99.90;;;;;;5093808;28;20671;-78
2021/07/07 02:11:23;;;;;;;11.33;7.40;;;13.80;99.90;;;;;;5093827;28;20226;-78
2021/07/07 02:13:51;;;;;;;11.80;7.30;;;13.80;99.90;;;;;;5100572;28;20678;-78
2021/07/07 02:16:18;;;;;;;14.30;7.23;;;13.80;99.90;;;;;;5113180;28;20226;-78
2021/07/07 02:18:45;;;;;;;12.00;6.40;;;13.70;99.90;;;;;;5114156;28;20226;-77
2021/07/07 02:21:12;;;;;;;12.33;6.70;;;13.70;99.90;;;;;;5113124;28;20237;-78
2021/07/07 02:23:39;;;;;;;11.10;6.37;;;13.70;99.90;;;;;;5112219;28;20255;-78
2021/07/07 02:26:06;;;;;;;12.23;6.70;;;13.70;99.90;;;;;;5094162;28;20230;-77
2021/07/07 02:28:33;;;;;;;13.23;6.60;;;13.50;99.90;;;;;;5096324;28;20194;-78
2021/07/07 02:31:01;;;;;;;12.30;6.37;;;13.50;99.90;;;;;;5113640;28;20259;-78
2021/07/07 02:33:28;;;;;;;12.20;7.30;;;13.40;99.90;;;;;;5094178;28;20198;-77
2021/07/07 02:35:56;;;;;;;14.43;7.47;;;13.40;99.90;;;;;;5093685;28;20654;-78
2021/07/07 02:38:25;;;;;;;14.03;6.60;;;13.40;99.90;;;;;;5096790;28;20233;-78
2021/07/07 02:40:55;;;;;;;12.37;7.27;;;13.40;99.90;;;;;;5099257;28;20680;-78
2021/07/07 02:43:22;;;;;;;13.87;6.43;;;13.40;99.90;;;;;;5113619;27;20205;-78
2021/07/07 02:45:49;;;;;;;15.10;7.77;;;13.40;99.90;;;;;;5113574;28;20476;-77
2021/07/07 02:48:18;;;;;;;13.77;7.37;;;13.30;99.90;;;;;;5112375;28;20671;-77
2021/07/07 02:50:46;;;;;;;13.97;6.83;;;13.30;99.90;;;;;;5112702;28;20642;-78
2021/07/07 02:53:15;;;;;;;14.37;7.67;;;13.30;99.90;;;;;;5110805;28;20233;-78
2021/07/07 02:55:42;;;;;;;14.13;8.50;;;13.20;99.90;;;;;;5092299;28;20274;-78
2021/07/07 02:58:09;;;;;;;12.90;8.20;;;13.10;99.90;;;;;;5094281;28;20280;-78
2021/07/07 03:00:38;;;;;;;11.47;7.67;;;13.10;99.90;;;;;;5093096;28;20197;-78
2021/07/07 03:03:07;;;;;;;14.77;8.60;;;13.10;99.90;;;;;;5092945;28;20294;-78
2021/07/07 03:05:38;;;;;;;18.03;8.27;;;13.10;99.90;;;;;;5093525;28;20677;-78
2021/07/07 03:08:06;;;;;;;11.87;7.70;;;13.10;99.90;;;;;;5096123;28;20194;-78
2021/07/07 03:10:33;;;;;;;9.50;6.80;;;13.10;99.90;;;;;;5092610;28;20685;-78
2021/07/07 03:13:00;;;;;;;11.00;6.70;;;13.00;99.90;;;;;;5100048;28;20241;-78
2021/07/07 03:15:27;;;;;;;10.97;7.10;;;12.80;99.90;;;;;;5102877;28;20301;-78
2021/07/07 03:17:54;;;;;;;16.30;6.50;;;12.70;99.90;;;;;;5093212;28;20610;-78
2021/07/07 03:20:21;;;;;;;10.33;5.80;;;12.60;99.90;;;;;;5095212;28;20264;-78
2021/07/07 03:22:51;;;;;;;13.50;6.47;;;12.50;99.90;;;;;;5102090;28;20253;-77
2021/07/07 03:25:18;;;;;;;12.40;6.40;;;12.30;99.90;;;;;;5095087;28;20229;-77
2021/07/07 03:27:45;;;;;;;11.33;6.27;;;12.20;99.90;;;;;;5098119;28;21055;-77
2021/07/07 03:30:13;;;;;;;11.70;6.27;;;12.20;99.90;;;;;;5113096;28;20271;-78
2021/07/07 03:32:41;;;;;;;13.27;6.97;;;12.00;99.90;;;;;;5106576;28;20697;-78
2021/07/07 03:35:09;;;;;;;14.53;6.50;;;12.00;99.90;;;;;;5092296;28;20249;-78
2021/07/07 03:37:35;;;;;;;11.77;6.30;;;11.90;99.90;;;;;;5096503;28;20286;-77
2021/07/07 03:40:05;;;;;;;12.60;6.40;;;11.80;99.90;;;;;;5112162;28;20733;-77
2021/07/07 03:42:32;;;;;;;12.17;7.00;;;11.70;99.90;;;;;;5108589;28;20232;-78
2021/07/07 03:44:59;;;;;;;11.17;6.90;;;11.70;99.90;;;;;;5094531;28;20615;-78
2021/07/07 03:47:26;;;;;;;13.97;7.73;;;11.60;99.90;;;;;;5094040;28;20206;-77
2021/07/07 03:49:53;;;;;;;8.63;6.50;;;11.60;99.90;;;;;;5112700;28;20233;-77
2021/07/07 03:52:20;;;;;;;11.67;6.97;;;11.50;99.90;;;;;;5112363;28;20233;-78
2021/07/07 03:54:47;;;;;;;13.00;7.70;;;11.40;99.90;;;;;;5111627;27;20300;-77
2021/07/07 03:57:15;;;;;;;11.27;6.87;;;11.30;99.90;;;;;;5112496;28;20289;-77
2021/07/07 03:59:43;;;;;;;11.43;7.07;;;11.30;99.90;;;;;;5106236;28;20285;-77
2021/07/07 04:02:10;;;;;;;15.03;7.77;;;11.20;99.90;;;;;;5104988;28;20190;-77
2021/07/07 04:04:37;;;;;;;12.60;7.90;;;11.20;99.90;;;;;;5093061;28;20285;-77
2021/07/07 04:07:04;;;;;;;11.43;7.93;;;11.20;99.90;;;;;;5116307;28;20232;-78
2021/07/07 04:09:31;;;;;;;13.23;8.83;;;11.20;99.90;;;;;;5118020;27;20224;-77
2021/07/07 04:12:01;;;;;;;13.20;9.20;;;11.20;99.90;;;;;;5119373;27;20676;-78
2021/07/07 04:14:30;;;;;;;16.33;9.00;;;11.20;99.90;;;;;;5119398;27;20260;-77
2021/07/07 04:16:58;;;;;;;12.57;9.03;;;11.30;99.90;;;;;;5106652;27;20233;-78
2021/07/07 04:19:26;;;;;;;18.90;9.17;;;11.30;99.90;;;;;;5100716;28;20293;-76
2021/07/07 04:21:54;;;;;;;15.13;8.43;;;11.30;99.90;;;;;;5110767;27;20236;-77
2021/07/07 04:24:21;;;;;;;15.27;8.10;;;11.20;99.90;;;;;;5100102;27;20277;-76
2021/07/07 04:26:48;;;;;;;13.40;8.07;;;11.20;99.90;;;;;;5111553;28;20302;-77
2021/07/07 04:29:16;;;;;;;12.83;7.33;;;11.20;99.90;;;;;;5118956;27;20239;-77
2021/07/07 04:31:44;;;;;;;15.63;7.63;;;11.20;99.90;;;;;;5118952;27;20288;-77
2021/07/07 04:34:12;;;;;;;12.87;7.60;;;11.20;99.90;;;;;;5112766;27;20281;-76
2021/07/07 04:36:39;;;;;;;16.87;8.00;;;11.20;99.90;;;;;;5113721;28;20611;-77
2021/07/07 04:39:07;;;;;;;13.80;8.17;;;11.20;99.90;;;;;;5102884;27;20285;-77
2021/07/07 04:41:35;;;;;;;12.17;7.77;;;11.10;99.90;;;;;;5099245;28;20285;-77
2021/07/07 04:44:02;;;;;;;12.03;8.37;;;11.10;99.90;;;;;;5117741;27;20221;-77
2021/07/07 04:46:29;;;;;;;13.83;8.77;;;11.00;99.90;;;;;;5119214;27;20197;-77
2021/07/07 04:48:57;;;;;;;17.00;8.03;;;11.10;99.90;;;;;;5118432;27;20583;-77
2021/07/07 04:51:24;;;;;;;12.43;8.30;;;11.00;99.90;;;;;;5108353;27;20230;-77
2021/07/07 04:53:51;;;;;;;12.70;7.97;;;11.00;99.90;;;;;;5112547;28;20232;-78
2021/07/07 04:56:18;;;;;;;16.30;8.57;;;11.10;99.90;;;;;;5105201;27;20301;-77
2021/07/07 04:58:45;;;;;;;10.87;8.20;;;11.10;99.90;;;;;;5098232;28;20699;-77
2021/07/07 05:01:12;;;;;;;13.87;8.97;;;11.10;99.90;;;;;;5098541;28;20198;-77
2021/07/07 05:03:39;;;;;;;14.33;8.63;;;11.20;99.90;;;;;;5104129;28;20229;-76
2021/07/07 05:06:08;;;;;;;15.67;9.20;;;11.20;99.90;;;;;;5115552;27;20281;-79
2021/07/07 05:08:35;;;;;;;14.70;9.23;;;11.20;99.90;;;;;;5106797;27;20226;-79
2021/07/07 05:11:03;;;;;;;20.00;10.30;;;11.30;99.90;;;;;;5116004;27;20229;-79
2021/07/07 05:13:31;;;;;;;14.63;10.33;;;11.30;99.90;;;;;;5103904;28;20201;-79
2021/07/07 05:15:58;;;;;;;18.27;10.77;;;11.30;99.90;;;;;;5110420;27;20304;-79
2021/07/07 05:18:26;;;;;;;17.90;10.67;;;11.40;99.90;;;;;;5115271;27;20243;-79
2021/07/07 05:20:53;;;;;;;19.57;10.03;;;11.40;99.90;;;;;;5112054;28;20260;-79
2021/07/07 05:23:22;;;;;;;13.93;9.57;;;11.50;99.90;;;;;;5115112;28;20285;-79
2021/07/07 05:25:49;;;;;;;16.97;9.33;;;11.60;99.90;;;;;;5106186;28;20353;-79
2021/07/07 05:28:16;;;;;;;15.47;8.80;;;11.60;99.90;;;;;;5113875;28;20289;-79
2021/07/07 05:30:44;;;;;;;18.43;7.93;;;11.70;99.90;;;;;;5098943;28;20633;-80
2021/07/07 05:33:10;;;;;;;12.87;8.07;;;11.90;99.90;;;;;;5098271;28;20251;-80
2021/07/07 05:35:38;;;;;;;14.67;6.70;;;11.90;99.90;;;;;;5095213;28;20223;-79
2021/07/07 05:38:06;;;;;;;11.87;7.37;;;12.00;99.90;;;;;;5097701;28;20206;-77
2021/07/07 05:40:34;;;;;;;11.83;6.97;;;12.40;99.90;;;;;;5102107;28;20276;-79
2021/07/07 05:43:04;;;;;;;11.57;6.80;;;12.70;99.90;;;;;;5113299;28;20267;-79
2021/07/07 05:45:31;;;;;;;9.80;5.87;;;13.20;99.90;;;;;;5101178;28;20230;-79
2021/07/07 05:47:59;;;;;;;11.90;6.03;;;13.50;99.90;;;;;;5110562;28;20229;-79
2021/07/07 05:50:27;;;;;;;14.13;5.70;;;14.30;99.90;;;;;;5099910;28;20206;-79
2021/07/07 05:52:57;;;;;;;9.93;5.00;;;14.40;99.90;;;;;;5102876;28;20230;-78
2021/07/07 05:55:24;;;;;;;13.10;5.07;;;14.30;99.90;;;;;;5110232;28;20301;-79
2021/07/07 05:57:53;;;;;;;13.10;5.53;;;14.00;99.90;;;;;;5099908;28;20234;-77
2021/07/07 06:00:22;;;;;;;9.90;5.68;;;14.00;99.90;;;;;;5100027;28;20439;-76
2021/07/07 06:02:51;;;;;;;11.13;5.13;;;14.60;99.90;;;;;;5112039;28;20243;-77
2021/07/07 06:05:19;;;;;;;10.30;5.23;;;14.20;99.90;;;;;;5106805;28;20201;-76
2021/07/07 06:07:46;;;;;;;12.43;5.30;;;13.80;99.90;;;;;;5101673;28;20229;-76
2021/07/07 06:10:15;;;;;;;9.50;5.00;;;14.00;99.90;;;;;;5111210;28;20229;-76
2021/07/07 06:12:43;;;;;;;8.97;5.10;;;14.60;99.90;;;;;;5099438;28;20288;-76
2021/07/07 06:15:14;;;;;;;10.33;4.80;;;15.60;99.90;;;;;;5097463;28;20241;-76
2021/07/07 06:17:41;;;;;;;8.83;4.20;;;16.80;99.90;;;;;;5104041;28;20281;-76
2021/07/07 06:20:12;;;;;;;8.47;4.43;;;17.20;99.90;;;;;;5113265;28;20281;-76
2021/07/07 06:22:39;;;;;;;9.03;4.37;;;17.00;99.90;;;;;;5102219;28;20309;-77
2021/07/07 06:25:07;;;;;;;9.35;4.07;;;17.10;99.90;;;;;;5109189;28;20245;-77
2021/07/07 06:27:36;;;;;;;10.38;4.00;;;18.60;99.90;;;;;;5112127;28;20259;-77
2021/07/07 06:30:05;;;;;;;8.35;3.92;;;20.00;99.90;;;;;;5092426;28;20206;-77
2021/07/07 06:32:33;;;;;;;10.23;4.05;;;20.00;99.90;;;;;;5097684;28;20756;-77
2021/07/07 06:35:01;;;;;;;9.95;4.05;;;20.20;99.90;;;;;;5096448;28;20301;-77
2021/07/07 06:37:29;;;;;;;9.52;3.53;;;21.10;99.90;;;;;;5098575;28;20587;-78
2021/07/07 06:39:56;;;;;;;8.07;3.58;;;21.80;99.90;;;;;;5109628;28;20254;-77
2021/07/07 06:42:23;;;;;;;6.57;3.58;;;22.40;99.90;;;;;;5106754;28;20281;-78
2021/07/07 06:44:50;;;;;;;6.70;3.28;;;22.80;99.90;;;;;;5110977;28;20232;-78
2021/07/07 06:47:16;;;;;;;10.75;3.95;;;23.50;99.90;;;;;;5104215;28;20654;-78
2021/07/07 06:49:46;;;;;;;5.90;3.40;;;22.90;99.90;;;;;;5099196;28;20728;-80
2021/07/07 06:52:12;;;;;;;8.32;3.45;;;22.70;99.90;;;;;;5108465;28;20198;-80
2021/07/07 06:54:42;;;;;;;9.50;3.30;;;23.20;99.90;;;;;;5093471;28;20222;-80
2021/07/07 06:57:09;;;;;;;8.40;3.40;;;23.80;99.90;;;;;;5108291;28;20748;-78
2021/07/07 06:59:36;;;;;;;10.43;3.25;;;23.50;99.90;;;;;;5097895;28;20673;-78
2021/07/07 07:02:04;;;;;;;6.10;2.67;;;23.00;99.90;;;;;;5103218;28;20209;-78
2021/07/07 07:04:31;;;;;;;6.70;2.80;;;23.60;99.90;;;;;;5106933;28;20197;-77
2021/07/07 07:07:00;;;;;;;3.78;2.05;;;22.90;99.90;;;;;;5104815;28;20218;-78
2021/07/07 07:09:27;;;;;;;5.07;2.72;;;23.20;99.90;;;;;;5112430;28;20236;-76
2021/07/07 07:11:54;;;;;;;6.32;2.70;;;23.50;99.90;;;;;;5103888;28;20229;-78
2021/07/07 07:14:21;;;;;;;5.60;2.08;;;23.50;99.90;;;;;;5112713;28;20681;-78
2021/07/07 07:16:48;;;;;;;4.80;2.40;;;24.40;99.90;;;;;;5096894;28;20624;-78
2021/07/07 07:19:15;;;;;;;5.53;2.15;;;24.50;99.90;;;;;;5102984;28;20620;-77
2021/07/07 07:21:43;;;;;;;6.85;2.42;;;24.30;99.90;;;;;;5097953;28;20296;-78
2021/07/07 07:24:11;;;;;;;7.30;2.60;;;22.60;99.90;;;;;;5099031;28;20689;-78
2021/07/07 07:26:38;;;;;;;4.13;1.90;;;23.20;99.90;;;;;;5099313;28;20274;-78
2021/07/07 07:29:06;;;;;;;6.82;1.95;;;23.50;99.90;;;;;;5109850;28;20284;-78
2021/07/07 07:31:33;;;;;;;3.38;2.05;;;23.60;99.90;;;;;;5095522;28;20202;-79
2021/07/07 07:34:00;;;;;;;5.88;1.85;;;23.50;99.90;;;;;;5099793;28;20280;-80
2021/07/07 07:36:28;;;;;;;5.97;2.10;;;23.40;99.90;;;;;;5096912;28;20780;-79
2021/07/07 07:39:00;;;;;;;4.22;1.98;;;23.10;99.90;;;;;;5109375;28;20201;-80
2021/07/07 07:41:30;;;;;;;6.65;2.25;;;22.70;99.90;;;;;;5092736;28;20198;-79
2021/07/07 07:43:57;;;;;;;5.68;1.90;;;23.20;99.90;;;;;;5103525;28;20197;-79
2021/07/07 07:46:27;;;;;;;7.25;2.22;;;23.30;99.90;;;;;;5100395;28;20236;-79
2021/07/07 07:48:56;;;;;;;4.65;2.00;;;23.30;99.90;;;;;;5091567;28;20645;-79
2021/07/07 07:51:23;;;;;;;4.75;2.00;;;22.40;99.90;;;;;;5099830;28;20226;-78
2021/07/07 07:53:50;;;;;;;3.72;1.60;;;22.50;99.90;;;;;;5092076;28;20252;-79
2021/07/07 07:56:18;;;;;;;6.75;2.05;;;22.60;99.90;;;;;;5098092;28;20304;-79
2021/07/07 07:58:46;;;;;;;3.30;1.80;;;23.10;99.90;;;;;;5101589;28;20262;-79
2021/07/07 08:01:13;;;;;;;4.43;2.17;;;23.00;99.90;;;;;;5104996;28;20699;-79
2021/07/07 08:03:40;;;;;;;3.92;1.90;;;24.00;99.90;;;;;;5094561;28;20198;-82
2021/07/07 08:06:07;;;;;;;5.30;1.92;;;24.00;99.90;;;;;;5090659;28;20191;-79
2021/07/07 08:08:34;;;;;;;6.20;2.50;;;24.40;99.90;;;;;;5091345;28;20584;-80
2021/07/07 08:11:01;;;;;;;4.35;2.15;;;24.10;99.90;;;;;;5090649;28;20230;-79
2021/07/07 08:13:28;;;;;;;8.15;2.42;;;25.50;99.90;;;;;;5091002;28;20259;-79
2021/07/07 08:15:56;;;;;;;4.95;2.28;;;25.40;99.90;;;;;;5089962;28;20297;-79
2021/07/07 08:18:23;;;;;;;5.88;2.28;;;24.00;99.90;;;;;;5090714;28;20290;-79
2021/07/07 08:20:50;;;;;;;5.10;2.53;;;22.90;99.90;;;;;;5091594;28;20309;-78
2021/07/07 08:23:17;;;;;;;3.75;2.00;;;22.80;99.90;;;;;;5099603;28;20239;-79
2021/07/07 08:25:46;;;;;;;4.13;1.88;;;24.40;99.90;;;;;;5106355;28;20226;-79
2021/07/07 08:28:13;;;;;;;4.28;2.00;;;23.80;99.90;;;;;;5099384;28;20772;-79
2021/07/07 08:30:40;;;;;;;5.25;1.83;;;23.80;99.90;;;;;;5092354;28;20234;-79
2021/07/07 08:33:08;;;;;;;4.72;2.05;;;25.50;99.90;;;;;;5099610;28;20233;-79
2021/07/07 08:35:37;;;;;;;5.22;2.10;;;25.60;99.90;;;;;;5108770;28;20309;-79
2021/07/07 08:38:04;;;;;;;4.05;2.03;;;24.10;99.90;;;;;;5108555;28;20198;-79
2021/07/07 08:40:31;;;;;;;4.15;1.83;;;22.50;99.90;;;;;;5092522;28;20230;-79
2021/07/07 08:42:58;;;;;;;3.20;1.60;;;22.10;99.90;;;;;;5098610;28;20273;-79
2021/07/07 08:45:25;;;;;;;4.40;1.90;;;21.20;99.90;;;;;;5106737;28;20294;-79
2021/07/07 08:47:52;;;;;;;7.03;1.80;;;20.80;99.90;;;;;;5111388;28;20234;-79
2021/07/07 08:50:23;;;;;;;3.15;1.80;;;21.70;99.90;;;;;;5110030;28;20232;-79
2021/07/07 08:52:50;;;;;;;3.28;1.63;;;22.20;99.90;;;;;;5099336;28;20302;-79
2021/07/07 08:55:18;;;;;;;6.88;1.77;;;21.40;99.90;;;;;;5097256;28;20281;-79
2021/07/07 08:57:46;;;;;;;3.20;2.00;;;22.00;99.90;;;;;;5089260;28;20633;-79
2021/07/07 09:00:16;;;;;;;2.50;1.80;;;21.70;99.90;;;;;;5111051;28;20279;-79
2021/07/07 09:02:54;;;;;;;5.47;2.10;;;21.30;99.90;;;;;;5111740;28;20247;-79
2021/07/07 09:05:23;;;;;;;4.30;2.10;;;20.40;99.90;;;;;;5112461;28;20254;-79
2021/07/07 09:07:51;;;;;;;5.22;2.55;;;20.10;99.90;;;;;;5111492;28;20222;-79
2021/07/07 09:10:26;;;;;;;4.10;2.10;;;20.30;99.90;;;;;;5101573;28;20282;-78
2021/07/07 09:12:53;;;;;;;3.97;1.90;;;20.70;99.90;;;;;;5109501;28;20233;-79
2021/07/07 09:15:20;;;;;;;5.57;2.15;;;20.60;99.90;;;;;;5095269;28;20271;-79
2021/07/07 09:17:49;;;;;;;3.97;2.05;;;21.40;99.90;;;;;;5097482;28;20601;-79
2021/07/07 09:20:18;;;;;;;5.00;2.05;;;22.00;99.90;;;;;;5109807;28;20202;-79
2021/07/07 09:22:46;;;;;;;4.00;1.98;;;22.30;99.90;;;;;;5110031;28;20273;-79
2021/07/07 09:25:18;;;;;;;4.97;2.00;;;23.80;99.90;;;;;;5098064;28;20281;-79
2021/07/07 09:27:46;;;;;;;3.83;1.83;;;25.30;99.90;;;;;;5106459;28;20201;-79
2021/07/07 09:30:14;;;;;;;4.00;1.75;;;24.50;99.90;;;;;;5106802;28;20549;-79
2021/07/07 09:32:44;;;;;;;3.92;1.88;;;24.50;99.90;;;;;;5099899;28;20725;-79
2021/07/07 09:35:12;;;;;;;2.40;1.70;;;24.80;99.90;;;;;;5101417;28;20203;-78
2021/07/07 09:37:43;;;;;;;3.05;2.00;;;25.20;99.90;;;;;;5097676;28;20685;-79
2021/07/07 09:40:13;;;;;;;5.18;1.73;;;23.60;99.90;;;;;;5098546;28;20590;-79
2021/07/07 09:42:42;;;;;;;3.85;1.77;;;22.80;99.90;;;;;;5113527;28;20285;-79
2021/07/07 09:45:12;;;;;;;3.88;1.95;;;21.90;99.90;;;;;;5102209;28;20689;-79
2021/07/07 09:47:40;;;;;;;6.00;2.08;;;21.70;99.90;;;;;;5109826;28;20190;-79
2021/07/07 09:50:09;;;;;;;3.85;2.00;;;20.80;99.90;;;;;;5096629;28;20201;-79
2021/07/07 09:52:36;;;;;;;4.78;1.77;;;21.70;99.90;;;;;;5104739;28;20234;-79
2021/07/07 09:55:07;;;;;;;4.18;1.80;;;24.10;99.90;;;;;;5101336;28;20253;-79
2021/07/07 09:57:44;;;;;;;6.93;2.00;;;22.80;99.90;;;;;;5112355;28;20229;-79
2021/07/07 10:00:16;;;;;;;2.95;1.80;;;22.90;99.90;;;;;;5103954;28;20232;-79
2021/07/07 10:02:43;;;;;;;4.78;2.20;;;23.70;99.90;;;;;;5102450;28;20227;-82
2021/07/07 10:05:14;;;;;;;3.33;1.58;;;23.00;99.90;;;;;;5104336;28;20536;-79
2021/07/07 10:07:43;;;;;;;3.35;1.70;;;22.10;99.90;;;;;;5089917;28;20222;-79
2021/07/07 10:10:12;;;;;;;5.63;1.88;;;22.80;99.90;;;;;;5098279;28;20189;-79
2021/07/07 10:12:43;;;;;;;2.83;1.60;;;21.60;99.90;;;;;;5100869;28;20289;-79
2021/07/07 10:15:12;;;;;;;4.65;2.20;;;21.60;99.90;;;;;;5093680;28;20281;-79
2021/07/07 10:17:40;;;;;;;3.25;1.52;;;21.30;99.90;;;;;;5103561;28;20213;-79
2021/07/07 10:20:09;;;;;;;4.60;1.77;;;24.00;99.90;;;;;;5105028;28;20630;-79
2021/07/07 10:22:37;;;;;;;3.63;1.67;;;25.70;99.90;;;;;;5106658;28;20660;-79
2021/07/07 10:25:06;;;;;;;3.55;1.70;;;26.40;99.90;;;;;;5096378;28;20772;-79
2021/07/07 10:27:35;;;;;;;3.60;1.95;;;25.50;99.90;;;;;;5104076;28;20276;-79
2021/07/07 10:30:05;;;;;;;4.47;1.95;;;26.00;99.90;;;;;;5097232;28;20222;-79
2021/07/07 10:32:32;;;;;;;3.88;1.42;;;23.60;99.90;;;;;;5112089;28;20245;-80
2021/07/07 10:35:05;;;;;;;4.75;1.70;;;24.50;99.90;;;;;;5104400;28;20278;-80
2021/07/07 10:37:34;;;;;;;2.03;1.40;;;26.70;99.90;;;;;;5103885;28;20697;-79
2021/07/07 10:40:25;;;;;;;5.28;1.90;;;27.40;99.90;;;;;;5113670;28;20208;-79
2021/07/07 10:42:53;;;;;;;3.53;1.50;;;24.60;99.90;;;;;;5105943;28;20259;-79
2021/07/07 10:45:41;;;;;;;3.13;1.80;;;24.50;99.90;;;;;;5092071;28;20233;-80
2021/07/07 10:48:25;;;;;;;4.80;1.58;;;23.50;99.90;;;;;;5093289;28;20235;-82
2021/07/07 10:50:52;;;;;;;4.20;1.80;;;24.20;99.90;;;;;;5092925;28;20602;-80
2021/07/07 10:53:24;;;;;;;3.03;1.48;;;26.30;99.90;;;;;;5092915;28;20230;-80
2021/07/07 10:55:52;;;;;;;3.05;1.48;;;27.00;99.90;;;;;;5092201;28;20230;-80
2021/07/07 10:58:27;;;;;;;2.70;1.45;;;27.40;99.90;;;;;;5091924;28;20317;-80
2021/07/07 11:00:56;;;;;;;2.60;1.35;;;28.20;99.90;;;;;;5101305;28;20228;-80
2021/07/07 11:03:37;;;;;;;2.95;1.40;;;28.10;99.90;;;;;;5100536;28;20203;-80
2021/07/07 11:06:27;;;;;;;5.63;1.50;;;25.80;99.90;;;;;;5098477;28;20190;-80
2021/07/07 11:09:07;;;;;;;3.63;1.50;;;24.10;99.90;;;;;;5112732;28;20229;-79
2021/07/07 11:11:35;;;;;;;1.70;1.30;;;23.40;99.90;;;;;;5103600;28;20209;-80
2021/07/07 11:14:11;;;;;;;3.45;1.33;;;26.00;99.90;;;;;;5104035;28;20647;-79
2021/07/07 11:16:54;;;;;;;2.08;1.42;;;28.70;99.90;;;;;;5094556;28;20328;-79
2021/07/07 11:19:45;;;;;;;3.42;1.45;;;28.80;99.90;;;;;;5103998;28;20243;-79
2021/07/07 11:22:14;;;;;;;3.58;1.50;;;26.70;99.90;;;;;;5098105;28;20310;-79
2021/07/07 11:24:44;;;;;;;3.05;1.48;;;27.90;99.90;;;;;;5095808;28;20226;-79
2021/07/07 11:27:11;;;;;;;4.13;1.60;;;27.50;99.90;;;;;;5099221;28;20226;-82
2021/07/07 11:29:38;;;;;;;3.13;1.60;;;27.30;99.90;;;;;;5092154;28;20230;-82
2021/07/07 11:32:26;;;;;;;3.15;1.55;;;27.50;99.90;;;;;;5093501;28;20230;-82
2021/07/07 11:34:55;;;;;;;2.67;1.38;;;25.80;99.90;;;;;;5099155;28;20194;-82
2021/07/07 11:37:23;;;;;;;3.75;1.42;;;24.40;99.90;;;;;;5103774;28;20250;-82
2021/07/07 11:40:14;;;;;;;3.28;1.40;;;23.50;99.90;;;;;;5110870;28;20205;-81
2021/07/07 11:43:02;;;;;;;3.35;1.40;;;23.80;99.90;;;;;;5093908;28;20248;-81
2021/07/07 11:45:35;;;;;;;2.97;1.48;;;24.40;99.90;;;;;;5091944;28;20198;-80
2021/07/07 11:48:09;;;;;;;2.60;1.48;;;24.60;99.90;;;;;;5096677;28;20277;-82
2021/07/07 11:50:39;;;;;;;2.10;1.38;;;26.10;99.90;;;;;;5106829;28;20197;-82
2021/07/07 11:53:08;;;;;;;3.88;1.77;;;25.40;99.90;;;;;;5107726;28;20724;-82
2021/07/07 11:55:56;;;;;;;2.15;1.00;;;25.90;99.90;;;;;;5104054;28;20206;-82
2021/07/07 11:58:36;;;;;;;2.00;1.10;;;27.40;99.90;;;;;;5094501;28;20235;-83
2021/07/07 12:01:06;;;;;;;2.55;1.30;;;26.70;99.90;;;;;;5090323;28;20194;-83
2021/07/07 12:03:35;;;;;;;1.73;1.30;;;25.60;99.90;;;;;;5091450;28;20211;-82
2021/07/07 12:06:04;;;;;;;2.05;1.30;;;27.10;99.90;;;;;;5091654;28;20255;-82
2021/07/07 12:08:34;;;;;;;3.28;1.23;;;26.50;99.90;;;;;;5090353;28;20222;-83
2021/07/07 12:11:10;;;;;;;3.45;1.42;;;26.10;99.90;;;;;;5090289;28;20278;-82
2021/07/07 12:13:38;;;;;;;2.08;1.23;;;25.20;99.90;;;;;;5096362;28;20204;-82
2021/07/07 12:16:23;;;;;;;1.58;1.27;;;24.10;99.90;;;;;;5102483;28;20221;-82
2021/07/07 12:18:53;;;;;;;3.75;1.38;;;22.90;99.90;;;;;;5094261;28;20190;-82
2021/07/07 12:21:36;;;;;;;2.67;1.52;;;22.90;99.90;;;;;;5099021;28;20214;-82
2021/07/07 12:24:07;;;;;;;2.28;1.63;;;22.80;99.90;;;;;;5096929;28;20201;-82
2021/07/07 12:26:36;;;;;;;2.70;1.30;;;22.90;99.90;;;;;;5108770;28;20255;-82
2021/07/07 12:29:04;;;;;;;3.70;1.88;;;23.00;99.90;;;;;;5109641;28;20294;-82
2021/07/07 12:31:32;;;;;;;3.13;1.80;;;23.30;99.90;;;;;;5107728;28;20281;-82
2021/07/07 12:34:01;;;;;;;2.97;1.70;;;23.70;99.90;;;;;;5104377;28;20206;-84
2021/07/07 12:36:30;;;;;;;3.28;1.45;;;23.90;99.90;;;;;;5102567;28;20243;-85
2021/07/07 12:38:58;;;;;;;2.13;1.80;;;25.80;99.90;;;;;;5108468;28;20222;-83
2021/07/07 12:41:33;;;;;;;5.32;1.73;;;26.00;99.90;;;;;;5102202;28;20288;-83
2021/07/07 12:44:09;;;;;;;3.35;1.58;;;25.80;99.90;;;;;;5101006;28;20236;-82
2021/07/07 12:46:50;;;;;;;2.30;1.50;;;24.60;99.90;;;;;;5097596;28;20610;-83
2021/07/07 12:49:23;;;;;;;3.60;1.60;;;23.70;99.90;;;;;;5096063;28;20240;-83
2021/07/07 12:51:51;;;;;;;4.95;1.80;;;23.00;99.90;;;;;;5103883;28;20288;-83